createdAt,value
2022-12-25T00:01:34.478Z,74.78
2022-12-25T00:04:02.438Z,74.69
2022-12-25T00:06:30.416Z,74.70
2022-12-25T00:08:58.208Z,74.74
2022-12-25T00:11:26.113Z,74.77
2022-12-25T00:13:53.938Z,74.82
2022-12-25T00:16:26.547Z,74.88
2022-12-25T00:18:59.043Z,74.88
2022-12-25T00:21:28.020Z,74.83
2022-12-25T00:23:57.989Z,74.75
2022-12-25T00:26:27.854Z,74.81
2022-12-25T00:28:58.325Z,74.88
2022-12-25T00:31:27.631Z,74.79
2022-12-25T00:33:55.572Z,74.77
2022-12-25T00:36:23.877Z,74.75
2022-12-25T00:38:51.710Z,74.76
2022-12-25T00:41:42.461Z,74.83
2022-12-25T00:44:12.687Z,74.93
2022-12-25T00:46:41.738Z,74.77
2022-12-25T00:49:10.422Z,74.75
2022-12-25T00:51:38.422Z,74.64
2022-12-25T00:54:06.396Z,74.82
2022-12-25T00:56:35.247Z,74.88
2022-12-25T00:59:03.079Z,74.95
2022-12-25T01:01:32.976Z,75.02
2022-12-25T01:04:01.276Z,74.92
2022-12-25T01:06:29.832Z,74.86
2022-12-25T01:09:14.545Z,74.75
2022-12-25T01:11:42.425Z,74.92
2022-12-25T01:14:10.764Z,74.91
2022-12-25T01:16:38.954Z,74.74
2022-12-25T01:19:07.055Z,74.69
2022-12-25T01:21:35.038Z,74.69
2022-12-25T01:24:02.933Z,74.69
2022-12-25T01:26:30.851Z,74.88
2022-12-25T01:28:58.754Z,74.95
2022-12-25T01:31:26.818Z,74.73
2022-12-25T01:33:54.665Z,74.76
2022-12-25T01:36:25.469Z,74.67
2022-12-25T01:38:54.219Z,74.79
2022-12-25T01:41:25.430Z,74.57
2022-12-25T01:44:28.815Z,74.71
2022-12-25T01:46:56.618Z,74.74
2022-12-25T01:49:26.181Z,74.55
2022-12-25T01:52:04.914Z,74.60
2022-12-25T01:54:45.230Z,74.60
2022-12-25T01:57:27.770Z,74.81
2022-12-25T02:00:01.796Z,74.82
2022-12-25T02:02:29.956Z,74.78
2022-12-25T02:05:03.896Z,74.79
2022-12-25T02:07:37.548Z,74.87
2022-12-25T02:10:06.076Z,75.07
2022-12-25T02:12:35.735Z,74.93
2022-12-25T02:15:16.660Z,74.74
2022-12-25T02:18:06.369Z,74.71
2022-12-25T02:20:40.071Z,74.66
2022-12-25T02:23:29.473Z,74.85
2022-12-25T02:26:14.492Z,74.78
2022-12-25T02:28:46.127Z,74.75
2022-12-25T02:31:27.878Z,74.70
2022-12-25T02:34:14.578Z,74.64
2022-12-25T02:37:05.617Z,74.88
2022-12-25T02:39:59.086Z,74.81
2022-12-25T02:43:02.921Z,74.83
2022-12-25T02:45:51.359Z,74.84
2022-12-25T02:48:38.712Z,74.65
2022-12-25T02:51:28.475Z,74.82
2022-12-25T02:54:15.377Z,74.77
2022-12-25T02:57:02.630Z,74.73
2022-12-25T02:59:48.700Z,74.90
2022-12-25T03:02:35.025Z,74.76
2022-12-25T03:05:22.586Z,74.87
2022-12-25T03:07:51.247Z,74.86
2022-12-25T03:10:38.366Z,74.81
2022-12-25T03:13:13.213Z,74.72
2022-12-25T03:15:57.315Z,74.79
2022-12-25T03:18:27.935Z,74.88
2022-12-25T03:21:12.094Z,74.91
2022-12-25T03:23:59.877Z,74.85
2022-12-25T03:26:43.833Z,74.89
2022-12-25T03:29:32.166Z,74.99
2022-12-25T03:32:41.745Z,74.92
2022-12-25T03:35:31.245Z,74.91
2022-12-25T03:38:22.180Z,74.86
2022-12-25T03:41:16.924Z,74.88
2022-12-25T03:44:06.877Z,74.84
2022-12-25T03:46:58.669Z,74.91
2022-12-25T03:50:31.685Z,74.89
2022-12-25T03:53:28.920Z,75.07
2022-12-25T03:56:14.251Z,74.95
2022-12-25T03:59:19.472Z,74.95
2022-12-25T04:02:08.956Z,75.01
2022-12-25T04:04:53.073Z,74.92
2022-12-25T04:07:36.886Z,74.82
2022-12-25T04:10:21.299Z,74.91
2022-12-25T04:13:05.156Z,74.78
2022-12-25T04:15:49.061Z,74.79
2022-12-25T04:18:33.007Z,74.77
2022-12-25T04:21:16.820Z,74.76
2022-12-25T04:23:59.587Z,74.90
2022-12-25T04:26:42.690Z,74.91
2022-12-25T04:29:25.453Z,75.09
2022-12-25T04:32:09.197Z,75.22
2022-12-25T04:34:55.239Z,75.07
2022-12-25T04:37:23.264Z,75.01
2022-12-25T04:39:51.247Z,74.84
2022-12-25T04:42:19.283Z,74.89
2022-12-25T04:44:47.180Z,74.69
2022-12-25T04:47:15.120Z,74.76
2022-12-25T04:49:43.050Z,74.68
2022-12-25T04:52:10.951Z,74.79
2022-12-25T04:54:59.402Z,75.03
2022-12-25T04:57:27.318Z,74.94
2022-12-25T04:59:55.228Z,74.97
2022-12-25T05:02:23.354Z,74.94
2022-12-25T05:04:51.937Z,74.85
2022-12-25T05:07:19.828Z,74.81
2022-12-25T05:09:47.772Z,74.97
2022-12-25T05:12:15.570Z,74.79
2022-12-25T05:14:45.026Z,74.91
2022-12-25T05:17:12.942Z,75.02
2022-12-25T05:19:40.837Z,74.94
2022-12-25T05:22:17.769Z,74.82
2022-12-25T05:24:50.590Z,74.80
2022-12-25T05:27:27.442Z,74.88
2022-12-25T05:30:08.500Z,74.91
2022-12-25T05:35:33.284Z,75.09
2022-12-25T05:38:05.679Z,75.22
2022-12-25T05:40:42.094Z,75.26
2022-12-25T05:43:13.677Z,75.31
2022-12-25T05:45:42.875Z,75.20
2022-12-25T05:48:14.068Z,75.09
2022-12-25T05:50:52.398Z,75.12
2022-12-25T05:53:23.572Z,75.15
2022-12-25T05:55:54.690Z,75.21
2022-12-25T05:58:26.223Z,74.98
2022-12-25T06:00:54.836Z,74.95
2022-12-25T06:03:27.607Z,74.92
2022-12-25T06:08:38.740Z,75.20
2022-12-25T06:11:08.361Z,75.39
2022-12-25T06:13:36.646Z,75.28
2022-12-25T06:16:08.974Z,75.26
2022-12-25T06:18:43.855Z,75.23
2022-12-25T06:21:13.865Z,75.16
2022-12-25T06:23:42.166Z,75.19
2022-12-25T06:26:13.462Z,75.31
2022-12-25T06:28:41.742Z,75.45
2022-12-25T06:31:18.615Z,75.37
2022-12-25T06:33:47.147Z,75.48
2022-12-25T06:36:21.454Z,75.50
2022-12-25T06:38:49.165Z,75.49
2022-12-25T06:41:19.414Z,75.43
2022-12-25T06:43:52.035Z,75.27
2022-12-25T06:46:21.574Z,75.21
2022-12-25T06:48:50.158Z,75.42
2022-12-25T06:51:24.232Z,75.45
2022-12-25T06:53:52.991Z,75.32
2022-12-25T06:56:24.004Z,75.54
2022-12-25T06:58:55.742Z,75.38
2022-12-25T07:01:39.825Z,75.46
2022-12-25T07:04:14.471Z,75.59
2022-12-25T07:06:42.096Z,75.48
2022-12-25T07:09:09.939Z,75.65
2022-12-25T07:11:38.012Z,75.42
2022-12-25T07:14:05.744Z,75.49
2022-12-25T07:16:33.489Z,75.57
2022-12-25T07:19:01.439Z,75.54
2022-12-25T07:21:29.132Z,75.52
2022-12-25T07:23:56.781Z,75.49
2022-12-25T07:26:24.476Z,75.40
2022-12-25T07:28:52.130Z,75.39
2022-12-25T07:31:19.886Z,75.39
2022-12-25T07:33:48.173Z,75.41
2022-12-25T07:36:16.484Z,75.35
2022-12-25T07:38:44.248Z,75.43
2022-12-25T07:41:13.176Z,75.36
2022-12-25T07:43:41.730Z,75.43
2022-12-25T07:46:10.102Z,75.43
2022-12-25T07:48:37.785Z,75.32
2022-12-25T07:51:08.223Z,75.46
2022-12-25T07:53:36.489Z,75.45
2022-12-25T07:56:13.290Z,75.56
2022-12-25T07:58:41.048Z,75.47
2022-12-25T08:01:17.664Z,75.40
2022-12-25T08:03:54.635Z,75.46
2022-12-25T08:06:26.846Z,75.65
2022-12-25T08:08:54.502Z,75.62
2022-12-25T08:11:22.729Z,75.59
2022-12-25T08:13:50.491Z,75.47
2022-12-25T08:16:18.262Z,75.59
2022-12-25T08:18:46.028Z,75.50
2022-12-25T08:21:16.312Z,75.47
2022-12-25T08:23:46.644Z,75.42
2022-12-25T08:26:17.852Z,75.65
2022-12-25T08:28:46.381Z,75.68
2022-12-25T08:31:18.595Z,75.71
2022-12-25T08:33:47.792Z,75.69
2022-12-25T08:36:16.929Z,75.52
2022-12-25T08:38:45.376Z,75.44
2022-12-25T08:41:13.801Z,75.53
2022-12-25T08:43:41.718Z,75.46
2022-12-25T08:46:10.246Z,75.57
2022-12-25T08:48:38.295Z,75.72
2022-12-25T08:51:12.119Z,75.75
2022-12-25T08:53:41.820Z,75.55
2022-12-25T08:56:11.294Z,75.69
2022-12-25T08:58:39.428Z,75.64
2022-12-25T09:01:07.648Z,75.60
2022-12-25T09:03:35.658Z,75.55
2022-12-25T09:06:04.788Z,75.55
2022-12-25T09:08:32.947Z,75.57
2022-12-25T09:11:05.900Z,75.75
2022-12-25T09:13:34.379Z,75.72
2022-12-25T09:16:09.470Z,75.61
2022-12-25T09:18:37.508Z,75.66
2022-12-25T09:21:07.697Z,75.66
2022-12-25T09:23:35.917Z,75.63
2022-12-25T09:26:05.911Z,75.77
2022-12-25T09:28:34.482Z,75.90
2022-12-25T09:31:02.864Z,75.99
2022-12-25T09:33:30.808Z,76.04
2022-12-25T09:36:01.650Z,75.81
2022-12-25T09:38:30.664Z,75.71
2022-12-25T09:41:17.223Z,75.73
2022-12-25T09:43:55.130Z,75.62
2022-12-25T09:46:31.636Z,75.59
2022-12-25T09:49:36.476Z,75.60
2022-12-25T09:52:18.347Z,75.67
2022-12-25T09:55:20.443Z,75.75
2022-12-25T09:57:54.229Z,75.58
2022-12-25T10:00:24.526Z,75.54
2022-12-25T10:03:11.269Z,75.50
2022-12-25T10:05:58.345Z,75.54
2022-12-25T10:08:28.893Z,75.42
2022-12-25T10:11:30.469Z,75.43
2022-12-25T10:14:39.388Z,75.41
2022-12-25T10:17:25.881Z,75.56
2022-12-25T10:20:25.396Z,75.81
2022-12-25T10:22:58.116Z,75.68
2022-12-25T10:25:26.218Z,75.68
2022-12-25T10:28:11.833Z,75.72
2022-12-25T10:30:42.798Z,75.82
2022-12-25T10:33:17.039Z,75.73
2022-12-25T10:35:45.792Z,75.68
2022-12-25T10:38:19.306Z,75.62
2022-12-25T10:41:02.943Z,75.58
2022-12-25T10:43:52.791Z,75.60
2022-12-25T10:46:22.566Z,75.55
2022-12-25T10:48:59.806Z,75.51
2022-12-25T10:51:32.565Z,75.52
2022-12-25T10:54:03.155Z,75.37
2022-12-25T10:56:30.876Z,75.53
2022-12-25T10:59:11.680Z,75.62
2022-12-25T11:01:39.480Z,75.57
2022-12-25T11:04:17.860Z,75.58
2022-12-25T11:06:57.250Z,75.49
2022-12-25T11:09:25.090Z,75.35
2022-12-25T11:11:53.588Z,75.50
2022-12-25T11:14:22.761Z,75.38
2022-12-25T11:16:50.513Z,75.32
2022-12-25T11:19:26.914Z,75.21
2022-12-25T11:21:57.464Z,75.19
2022-12-25T11:24:30.124Z,75.24
2022-12-25T11:27:06.353Z,75.28
2022-12-25T11:29:51.406Z,75.19
2022-12-25T11:32:39.864Z,75.25
2022-12-25T11:35:15.216Z,75.26
2022-12-25T11:37:42.862Z,75.23
2022-12-25T11:40:18.856Z,75.23
2022-12-25T11:43:07.536Z,75.15
2022-12-25T11:45:40.646Z,75.10
2022-12-25T11:48:21.693Z,75.27
2022-12-25T11:50:59.921Z,75.19
2022-12-25T11:53:47.637Z,75.21
2022-12-25T11:56:21.630Z,75.14
2022-12-25T11:58:51.783Z,75.23
2022-12-25T12:02:02.929Z,75.38
2022-12-25T12:04:43.120Z,75.41
2022-12-25T12:07:29.746Z,75.37
2022-12-25T12:10:36.812Z,75.31
2022-12-25T12:13:36.772Z,75.35
2022-12-25T12:16:06.000Z,75.49
2022-12-25T12:18:34.710Z,75.52
2022-12-25T12:21:02.364Z,75.47
2022-12-25T12:23:34.523Z,75.28
2022-12-25T12:26:04.285Z,75.37
2022-12-25T12:28:44.726Z,75.27
2022-12-25T12:31:13.812Z,75.24
2022-12-25T12:33:50.679Z,75.33
2022-12-25T12:36:34.488Z,75.46
2022-12-25T12:39:05.776Z,75.43
2022-12-25T12:41:49.636Z,75.57
2022-12-25T12:44:18.381Z,75.50
2022-12-25T12:46:57.671Z,75.42
2022-12-25T12:49:30.299Z,75.34
2022-12-25T12:52:25.627Z,75.50
2022-12-25T12:55:16.852Z,75.55
2022-12-25T12:57:44.565Z,75.52
2022-12-25T13:00:20.977Z,75.44
2022-12-25T13:03:14.022Z,75.63
2022-12-25T13:05:57.612Z,75.53
2022-12-25T13:08:30.068Z,75.36
2022-12-25T13:11:17.747Z,75.50
2022-12-25T13:13:47.515Z,75.45
2022-12-25T13:16:42.705Z,75.59
2022-12-25T13:19:18.028Z,75.51
2022-12-25T13:21:57.031Z,75.47
2022-12-25T13:24:27.659Z,75.64
2022-12-25T13:26:55.744Z,75.56
2022-12-25T13:29:32.346Z,75.59
2022-12-25T13:32:02.784Z,75.75
2022-12-25T13:34:48.237Z,75.72
2022-12-25T13:37:19.585Z,75.57
2022-12-25T13:39:59.958Z,75.52
2022-12-25T13:42:39.918Z,75.54
2022-12-25T13:45:22.436Z,75.46
2022-12-25T13:47:55.406Z,75.38
2022-12-25T13:50:30.155Z,75.46
2022-12-25T13:53:10.589Z,75.45
2022-12-25T13:55:38.586Z,75.56
2022-12-25T13:58:07.672Z,75.53
2022-12-25T14:00:36.882Z,75.66
2022-12-25T14:03:07.471Z,75.55
2022-12-25T14:05:42.841Z,75.59
2022-12-25T14:08:24.331Z,75.53
2022-12-25T14:10:53.664Z,75.52
2022-12-25T14:13:26.874Z,75.39
2022-12-25T14:15:57.079Z,75.46
2022-12-25T14:18:25.600Z,75.50
2022-12-25T14:20:56.409Z,75.34
2022-12-25T14:23:24.736Z,75.50
2022-12-25T14:25:52.797Z,75.56
2022-12-25T14:28:26.673Z,75.52
2022-12-25T14:30:54.622Z,75.58
2022-12-25T14:33:25.774Z,75.65
2022-12-25T14:35:53.848Z,75.79
2022-12-25T14:38:28.378Z,75.76
2022-12-25T14:41:05.733Z,75.63
2022-12-25T14:43:36.282Z,75.63
2022-12-25T14:46:08.858Z,75.65
2022-12-25T14:48:36.642Z,75.69
2022-12-25T14:51:08.659Z,75.66
2022-12-25T14:53:40.762Z,75.57
2022-12-25T14:56:10.501Z,75.67
2022-12-25T14:58:42.836Z,75.64
2022-12-25T15:01:34.792Z,75.51
2022-12-25T15:04:20.548Z,75.60
2022-12-25T15:07:01.400Z,75.71
2022-12-25T15:09:30.090Z,75.52
2022-12-25T15:11:57.972Z,75.75
2022-12-25T15:14:27.172Z,75.80
2022-12-25T15:16:58.737Z,75.84
2022-12-25T15:19:36.513Z,75.87
2022-12-25T15:22:04.840Z,75.97
2022-12-25T15:24:32.479Z,75.97
2022-12-25T15:27:00.712Z,75.94
2022-12-25T15:32:23.114Z,75.90
2022-12-25T15:34:51.211Z,75.87
2022-12-25T15:37:19.184Z,75.91
2022-12-25T15:39:46.947Z,75.87
2022-12-25T15:42:21.223Z,75.86
2022-12-25T15:44:48.932Z,76.00
2022-12-25T15:47:20.122Z,75.93
2022-12-25T15:49:48.867Z,75.90
2022-12-25T15:52:17.813Z,75.91
2022-12-25T15:54:45.596Z,75.96
2022-12-25T15:57:23.324Z,76.03
2022-12-25T15:59:51.017Z,76.13
2022-12-25T16:02:21.209Z,76.17
2022-12-25T16:04:51.048Z,76.16
2022-12-25T16:07:21.629Z,76.13
2022-12-25T16:09:49.870Z,76.03
2022-12-25T16:12:19.769Z,76.06
2022-12-25T16:14:47.443Z,76.01
2022-12-25T16:17:16.392Z,76.16
2022-12-25T16:19:45.013Z,75.99
2022-12-25T16:22:14.633Z,76.04
2022-12-25T16:24:42.306Z,76.08
2022-12-25T16:27:10.004Z,75.98
2022-12-25T16:29:37.713Z,76.09
2022-12-25T16:32:05.389Z,76.08
2022-12-25T16:34:33.033Z,76.21
2022-12-25T16:37:00.705Z,76.37
2022-12-25T16:39:29.288Z,76.25
2022-12-25T16:41:56.978Z,76.25
2022-12-25T16:44:24.666Z,76.23
2022-12-25T16:46:52.519Z,76.16
2022-12-25T16:49:20.351Z,76.06
2022-12-25T16:51:48.038Z,76.08
2022-12-25T16:54:15.763Z,76.27
2022-12-25T16:56:43.491Z,76.30
2022-12-25T16:59:11.394Z,76.32
2022-12-25T17:01:43.220Z,76.36
2022-12-25T17:04:11.371Z,76.35
2022-12-25T17:06:39.072Z,76.20
2022-12-25T17:09:07.529Z,76.31
2022-12-25T17:11:35.212Z,76.51
2022-12-25T17:14:05.308Z,76.41
2022-12-25T17:16:35.722Z,76.41
2022-12-25T17:19:09.586Z,76.38
2022-12-25T17:21:38.283Z,76.38
2022-12-25T17:24:06.646Z,76.49
2022-12-25T17:26:34.704Z,76.50
2022-12-25T17:29:02.463Z,76.43
2022-12-25T17:31:30.379Z,76.42
2022-12-25T17:34:00.882Z,76.44
2022-12-25T17:36:29.693Z,76.71
2022-12-25T17:39:02.210Z,76.56
2022-12-25T17:41:30.271Z,76.52
2022-12-25T17:43:58.359Z,76.60
2022-12-25T17:46:28.706Z,76.53
2022-12-25T17:49:00.298Z,76.67
2022-12-25T17:51:30.369Z,76.57
2022-12-25T17:54:03.092Z,76.66
2022-12-25T17:56:32.071Z,76.56
2022-12-25T17:59:06.508Z,76.58
2022-12-25T18:01:36.416Z,76.65
2022-12-25T18:04:06.312Z,76.57
2022-12-25T18:06:35.691Z,76.71
2022-12-25T18:09:06.125Z,76.62
2022-12-25T18:11:36.765Z,76.68
2022-12-25T18:14:06.709Z,76.72
2022-12-25T18:16:36.449Z,76.60
2022-12-25T18:19:04.979Z,76.69
2022-12-25T18:21:32.682Z,76.63
2022-12-25T18:24:03.358Z,76.71
2022-12-25T18:26:31.568Z,76.79
2022-12-25T18:28:59.309Z,76.84
2022-12-25T18:31:30.472Z,76.83
2022-12-25T18:33:59.720Z,76.59
2022-12-25T18:36:29.951Z,76.81
2022-12-25T18:38:59.083Z,76.74
2022-12-25T18:41:28.655Z,76.76
2022-12-25T18:43:57.150Z,76.83
2022-12-25T18:46:26.842Z,76.83
2022-12-25T18:48:56.208Z,76.78
2022-12-25T18:51:24.596Z,76.89
2022-12-25T18:53:52.311Z,76.99
2022-12-25T18:56:20.449Z,76.90
2022-12-25T18:58:48.491Z,76.80
2022-12-25T19:01:24.163Z,76.84
2022-12-25T19:03:58.674Z,77.03
2022-12-25T19:06:33.448Z,76.92
2022-12-25T19:09:08.555Z,77.01
2022-12-25T19:11:46.169Z,77.12
2022-12-25T19:14:15.289Z,77.00
2022-12-25T19:16:43.141Z,77.07
2022-12-25T19:19:11.366Z,76.97
2022-12-25T19:21:39.212Z,76.96
2022-12-25T19:24:07.445Z,77.06
2022-12-25T19:26:36.167Z,77.10
2022-12-25T19:29:03.899Z,77.07
2022-12-25T19:31:31.843Z,77.02
2022-12-25T19:33:59.579Z,77.19
2022-12-25T19:36:27.483Z,76.99
2022-12-25T19:38:55.242Z,77.09
2022-12-25T19:41:23.069Z,77.06
2022-12-25T19:43:52.253Z,77.05
2022-12-25T19:46:23.082Z,76.96
2022-12-25T19:48:51.607Z,77.07
2022-12-25T19:51:23.163Z,77.15
2022-12-25T19:53:51.685Z,77.14
2022-12-25T19:56:19.735Z,77.14
2022-12-25T19:58:47.500Z,77.07
2022-12-25T20:01:18.880Z,77.11
2022-12-25T20:03:47.583Z,77.20
2022-12-25T20:06:20.110Z,77.18
2022-12-25T20:08:49.425Z,77.14
2022-12-25T20:11:17.667Z,77.28
2022-12-25T20:13:45.573Z,77.30
2022-12-25T20:16:13.411Z,77.21
2022-12-25T20:18:41.794Z,77.23
2022-12-25T20:21:18.195Z,77.35
2022-12-25T20:23:48.064Z,77.30
2022-12-25T20:26:18.579Z,77.24
2022-12-25T20:28:46.642Z,77.21
2022-12-25T20:31:18.445Z,77.39
2022-12-25T20:33:47.000Z,77.42
2022-12-25T20:36:15.264Z,77.37
2022-12-25T20:38:42.983Z,77.38
2022-12-25T20:41:31.700Z,77.32
2022-12-25T20:44:01.676Z,77.44
2022-12-25T20:46:29.805Z,77.35
2022-12-25T20:48:58.179Z,77.31
2022-12-25T20:51:26.937Z,77.28
2022-12-25T20:53:55.467Z,77.30
2022-12-25T20:56:25.978Z,77.30
2022-12-25T20:58:55.373Z,77.46
2022-12-25T21:01:24.388Z,77.60
2022-12-25T21:03:52.673Z,77.51
2022-12-25T21:06:21.202Z,77.43
2022-12-25T21:08:48.888Z,77.30
2022-12-25T21:11:17.967Z,77.51
2022-12-25T21:13:47.194Z,77.57
2022-12-25T21:16:18.569Z,77.51
2022-12-25T21:18:47.235Z,77.63
2022-12-25T21:21:15.683Z,77.64
2022-12-25T21:23:43.398Z,77.73
2022-12-25T21:26:28.725Z,77.61
2022-12-25T21:29:00.601Z,77.67
2022-12-25T21:31:29.306Z,77.61
2022-12-25T21:33:57.975Z,77.56
2022-12-25T21:36:31.467Z,77.70
2022-12-25T21:39:05.669Z,77.68
2022-12-25T21:41:35.593Z,77.76
2022-12-25T21:44:03.414Z,77.80
2022-12-25T21:46:31.362Z,77.83
2022-12-25T21:49:00.808Z,77.77
2022-12-25T21:51:50.041Z,77.83
2022-12-25T21:54:19.867Z,77.70
2022-12-25T21:56:48.708Z,77.82
2022-12-25T21:59:19.195Z,77.75
2022-12-25T22:01:49.850Z,77.70
2022-12-25T22:04:19.928Z,77.71
2022-12-25T22:07:03.849Z,77.66
2022-12-25T22:09:32.339Z,77.70
2022-12-25T22:12:16.179Z,77.75
2022-12-25T22:14:54.629Z,77.82
2022-12-25T22:17:44.247Z,77.84
2022-12-25T22:20:37.127Z,77.86
2022-12-25T22:23:05.111Z,77.83
2022-12-25T22:25:32.818Z,77.94
2022-12-25T22:28:00.596Z,77.87
2022-12-25T22:30:29.524Z,77.88
2022-12-25T22:32:57.253Z,77.81
2022-12-25T22:35:25.016Z,77.98
2022-12-25T22:37:53.933Z,77.74
2022-12-25T22:40:21.775Z,77.65
2022-12-25T22:42:49.694Z,77.84
2022-12-25T22:45:17.490Z,77.95
2022-12-25T22:47:45.189Z,77.95
2022-12-25T22:50:16.732Z,77.82
2022-12-25T22:52:45.757Z,77.87
2022-12-25T22:55:16.627Z,77.84
2022-12-25T22:57:44.300Z,77.94
2022-12-25T23:00:13.560Z,78.00
2022-12-25T23:02:41.571Z,77.98
2022-12-25T23:05:09.647Z,78.13
2022-12-25T23:07:37.386Z,78.04
2022-12-25T23:10:06.627Z,78.00
2022-12-25T23:12:50.335Z,77.95
2022-12-25T23:15:18.193Z,78.00
2022-12-25T23:18:01.823Z,78.04
2022-12-25T23:20:55.718Z,77.91
2022-12-25T23:23:38.405Z,77.95
2022-12-25T23:26:08.961Z,77.87
2022-12-25T23:28:54.719Z,77.98
2022-12-25T23:31:28.305Z,78.13
2022-12-25T23:33:58.635Z,78.11
2022-12-25T23:36:26.363Z,78.12
2022-12-25T23:38:54.191Z,78.02
2022-12-25T23:41:21.945Z,78.09
2022-12-25T23:43:49.671Z,78.02
2022-12-25T23:46:17.529Z,78.09
2022-12-25T23:48:46.123Z,78.05
2022-12-25T23:51:13.793Z,78.09
2022-12-25T23:53:41.447Z,78.13
2022-12-25T23:56:10.619Z,78.15
2022-12-25T23:58:38.557Z,78.21
